sensor_id;sensor_type;location;lat;lon;timestamp;pressure;altitude;pressure_sealevel;temperature;humidity
21504;BME280;10913;51.992;9.228;2022-10-31T00:01:08;100726.69;;;13.45;100.00
21504;BME280;10913;51.992;9.228;2022-10-31T00:03:34;100736.47;;;13.42;100.00
21504;BME280;10913;51.992;9.228;2022-10-31T00:05:59;100738.25;;;13.41;100.00
21504;BME280;10913;51.992;9.228;2022-10-31T00:08:26;100744.44;;;13.40;100.00
21504;BME280;10913;51.992;9.228;2022-10-31T00:10:52;100745.34;;;13.39;100.00
21504;BME280;10913;51.992;9.228;2022-10-31T00:13:17;100744.44;;;13.40;100.00
21504;BME280;10913;51.992;9.228;2022-10-31T00:15:42;100749.81;;;13.37;100.00
21504;BME280;10913;51.992;9.228;2022-10-31T00:18:09;100755.16;;;13.33;100.00
21504;BME280;10913;51.992;9.228;2022-10-31T00:20:34;100760.53;;;13.27;100.00
21504;BME280;10913;51.992;9.228;2022-10-31T00:23:01;100772.03;;;13.24;100.00
21504;BME280;10913;51.992;9.228;2022-10-31T00:25:28;100758.81;;;13.20;100.00
21504;BME280;10913;51.992;9.228;2022-10-31T00:27:54;100764.16;;;13.18;100.00
21504;BME280;10913;51.992;9.228;2022-10-31T00:30:19;100760.63;;;13.18;100.00
21504;BME280;10913;51.992;9.228;2022-10-31T00:32:45;100763.31;;;13.16;100.00
21504;BME280;10913;51.992;9.228;2022-10-31T00:35:10;100758.88;;;13.14;100.00
21504;BME280;10913;51.992;9.228;2022-10-31T00:37:35;100764.19;;;13.10;100.00
21504;BME280;10913;51.992;9.228;2022-10-31T00:40:01;100765.13;;;13.06;100.00
21504;BME280;10913;51.992;9.228;2022-10-31T00:42:26;100767.78;;;13.05;100.00
21504;BME280;10913;51.992;9.228;2022-10-31T00:44:52;100765.16;;;13.02;100.00
21504;BME280;10913;51.992;9.228;2022-10-31T00:47:17;100780.25;;;12.98;100.00
21504;BME280;10913;51.992;9.228;2022-10-31T00:49:42;100775.81;;;12.97;100.00
21504;BME280;10913;51.992;9.228;2022-10-31T00:52:08;100782.91;;;12.97;100.00
21504;BME280;10913;51.992;9.228;2022-10-31T00:54:33;100782.88;;;12.98;100.00
21504;BME280;10913;51.992;9.228;2022-10-31T00:56:58;100784.59;;;13.01;100.00
21504;BME280;10913;51.992;9.228;2022-10-31T00:59:24;100781.94;;;13.02;100.00
21504;BME280;10913;51.992;9.228;2022-10-31T01:01:49;100781.03;;;13.05;100.00
21504;BME280;10913;51.992;9.228;2022-10-31T01:04:14;100786.41;;;12.99;100.00
21504;BME280;10913;51.992;9.228;2022-10-31T01:06:40;100784.69;;;12.95;100.00
21504;BME280;10913;51.992;9.228;2022-10-31T01:09:05;100788.25;;;12.91;100.00
21504;BME280;10913;51.992;9.228;2022-10-31T01:11:31;100780.31;;;12.89;100.00
21504;BME280;10913;51.992;9.228;2022-10-31T01:13:56;100785.59;;;12.89;100.00
21504;BME280;10913;51.992;9.228;2022-10-31T01:16:24;100791.78;;;12.90;100.00
21504;BME280;10913;51.992;9.228;2022-10-31T01:18:51;100790.91;;;12.91;100.00
21504;BME280;10913;51.992;9.228;2022-10-31T01:21:19;100790.03;;;12.89;100.00
21504;BME280;10913;51.992;9.228;2022-10-31T01:23:45;100791.81;;;12.87;100.00
21504;BME280;10913;51.992;9.228;2022-10-31T01:26:19;100792.69;;;12.86;100.00
21504;BME280;10913;51.992;9.228;2022-10-31T01:31:15;100796.25;;;12.83;100.00
21504;BME280;10913;51.992;9.228;2022-10-31T01:33:41;100789.19;;;12.81;100.00
21504;BME280;10913;51.992;9.228;2022-10-31T01:38:42;100782.19;;;12.78;100.00
21504;BME280;10913;51.992;9.228;2022-10-31T01:41:10;100785.72;;;12.77;100.00
21504;BME280;10913;51.992;9.228;2022-10-31T01:46:19;100793.69;;;12.75;100.00
21504;BME280;10913;51.992;9.228;2022-10-31T01:48:46;100797.22;;;12.74;100.00
21504;BME280;10913;51.992;9.228;2022-10-31T01:51:14;100790.19;;;12.69;100.00
21504;BME280;10913;51.992;9.228;2022-10-31T01:53:42;100795.50;;;12.67;100.00
21504;BME280;10913;51.992;9.228;2022-10-31T01:56:08;100791.09;;;12.65;100.00
21504;BME280;10913;51.992;9.228;2022-10-31T01:58:34;100790.22;;;12.64;100.00
21504;BME280;10913;51.992;9.228;2022-10-31T02:01:00;100793.75;;;12.63;100.00
21504;BME280;10913;51.992;9.228;2022-10-31T02:03:27;100792.88;;;12.64;100.00
21504;BME280;10913;51.992;9.228;2022-10-31T02:05:55;100793.75;;;12.63;100.00
21504;BME280;10913;51.992;9.228;2022-10-31T02:08:33;100794.66;;;12.61;100.00
21504;BME280;10913;51.992;9.228;2022-10-31T02:11:00;100791.16;;;12.59;100.00
21504;BME280;10913;51.992;9.228;2022-10-31T02:13:28;100799.13;;;12.57;100.00
21504;BME280;10913;51.992;9.228;2022-10-31T02:15:56;100800.91;;;12.55;100.00
21504;BME280;10913;51.992;9.228;2022-10-31T02:18:24;100803.56;;;12.54;100.00
21504;BME280;10913;51.992;9.228;2022-10-31T02:21:22;100797.38;;;12.53;100.00
21504;BME280;10913;51.992;9.228;2022-10-31T02:24:09;100800.91;;;12.52;100.00
21504;BME280;10913;51.992;9.228;2022-10-31T02:30:02;100796.50;;;12.51;100.00
21504;BME280;10913;51.992;9.228;2022-10-31T02:35:38;100789.47;;;12.44;100.00
21504;BME280;10913;51.992;9.228;2022-10-31T02:38:38;100794.78;;;12.39;100.00
21504;BME280;10913;51.992;9.228;2022-10-31T02:41:30;100790.41;;;12.37;100.00
21504;BME280;10913;51.992;9.228;2022-10-31T02:47:03;100785.13;;;12.32;100.00
21504;BME280;10913;51.992;9.228;2022-10-31T02:49:38;100784.25;;;12.32;100.00
21504;BME280;10913;51.992;9.228;2022-10-31T02:52:20;100780.72;;;12.31;100.00
21504;BME280;10913;51.992;9.228;2022-10-31T02:54:47;100781.63;;;12.29;100.00
21504;BME280;10913;51.992;9.228;2022-10-31T02:57:13;100779.84;;;12.28;100.00
21504;BME280;10913;51.992;9.228;2022-10-31T02:59:44;100784.28;;;12.26;100.00
21504;BME280;10913;51.992;9.228;2022-10-31T03:05:09;100792.25;;;12.23;100.00
21504;BME280;10913;51.992;9.228;2022-10-31T03:07:46;100787.88;;;12.19;100.00
21504;BME280;10913;51.992;9.228;2022-10-31T03:10:35;100789.66;;;12.17;100.00
21504;BME280;10913;51.992;9.228;2022-10-31T03:13:41;100800.25;;;12.14;100.00
21504;BME280;10913;51.992;9.228;2022-10-31T03:16:26;100801.16;;;12.13;100.00
21504;BME280;10913;51.992;9.228;2022-10-31T03:18:57;100802.91;;;12.14;100.00
21504;BME280;10913;51.992;9.228;2022-10-31T03:21:54;100794.97;;;12.12;100.00
21504;BME280;10913;51.992;9.228;2022-10-31T03:24:22;100796.72;;;12.12;100.00
21504;BME280;10913;51.992;9.228;2022-10-31T03:26:53;100813.50;;;12.09;100.00
21504;BME280;10913;51.992;9.228;2022-10-31T03:29:22;100825.00;;;12.06;100.00
21504;BME280;10913;51.992;9.228;2022-10-31T03:34:21;100834.72;;;12.04;100.00
21504;BME280;10913;51.992;9.228;2022-10-31T03:36:52;100837.38;;;12.04;100.00
21504;BME280;10913;51.992;9.228;2022-10-31T03:39:20;100834.72;;;12.03;100.00
21504;BME280;10913;51.992;9.228;2022-10-31T03:41:54;100840.91;;;12.03;100.00
21504;BME280;10913;51.992;9.228;2022-10-31T03:44:21;100835.59;;;12.03;100.00
21504;BME280;10913;51.992;9.228;2022-10-31T03:46:48;100840.91;;;12.02;100.00
21504;BME280;10913;51.992;9.228;2022-10-31T03:49:14;100840.94;;;11.99;100.00
21504;BME280;10913;51.992;9.228;2022-10-31T03:54:53;100839.19;;;11.95;100.00
21504;BME280;10913;51.992;9.228;2022-10-31T04:00:06;100839.19;;;11.90;100.00
21504;BME280;10913;51.992;9.228;2022-10-31T04:02:34;100845.38;;;11.86;100.00
21504;BME280;10913;51.992;9.228;2022-10-31T04:05:00;100846.31;;;11.76;100.00
21504;BME280;10913;51.992;9.228;2022-10-31T04:07:31;100837.47;;;11.63;100.00
21504;BME280;10913;51.992;9.228;2022-10-31T04:10:00;100839.25;;;11.57;100.00
21504;BME280;10913;51.992;9.228;2022-10-31T04:12:29;100841.91;;;11.54;100.00
21504;BME280;10913;51.992;9.228;2022-10-31T04:14:57;100836.63;;;11.54;100.00
21504;BME280;10913;51.992;9.228;2022-10-31T04:17:23;100839.25;;;11.58;100.00
21504;BME280;10913;51.992;9.228;2022-10-31T04:19:51;100834.84;;;11.59;100.00
21504;BME280;10913;51.992;9.228;2022-10-31T04:22:16;100845.41;;;11.62;100.00
21504;BME280;10913;51.992;9.228;2022-10-31T04:24:42;100831.28;;;11.60;100.00
21504;BME280;10913;51.992;9.228;2022-10-31T04:27:07;100832.22;;;11.59;100.00
21504;BME280;10913;51.992;9.228;2022-10-31T04:29:32;100841.00;;;11.59;100.00
21504;BME280;10913;51.992;9.228;2022-10-31T04:31:58;100837.47;;;11.60;100.00
21504;BME280;10913;51.992;9.228;2022-10-31T04:34:23;100834.81;;;11.62;100.00
21504;BME280;10913;51.992;9.228;2022-10-31T04:36:49;100841.00;;;11.62;100.00
21504;BME280;10913;51.992;9.228;2022-10-31T04:39:14;100838.34;;;11.64;100.00
21504;BME280;10913;51.992;9.228;2022-10-31T04:41:42;100840.09;;;11.65;100.00
21504;BME280;10913;51.992;9.228;2022-10-31T04:44:08;100841.88;;;11.66;100.00
21504;BME280;10913;51.992;9.228;2022-10-31T04:46:33;100832.16;;;11.69;100.00
21504;BME280;10913;51.992;9.228;2022-10-31T04:48:58;100834.81;;;11.71;100.00
21504;BME280;10913;51.992;9.228;2022-10-31T04:51:24;100836.56;;;11.72;100.00
21504;BME280;10913;51.992;9.228;2022-10-31T04:53:49;100839.22;;;11.69;100.00
21504;BME280;10913;51.992;9.228;2022-10-31T04:56:14;100836.56;;;11.69;100.00
21504;BME280;10913;51.992;9.228;2022-10-31T04:58:40;100841.88;;;11.66;100.00
21504;BME280;10913;51.992;9.228;2022-10-31T05:01:05;100841.00;;;11.62;100.00
21504;BME280;10913;51.992;9.228;2022-10-31T05:03:30;100841.91;;;11.58;100.00
21504;BME280;10913;51.992;9.228;2022-10-31T05:05:56;100843.69;;;11.55;100.00
21504;BME280;10913;51.992;9.228;2022-10-31T05:08:21;100837.50;;;11.50;100.00
21504;BME280;10913;51.992;9.228;2022-10-31T05:10:46;100840.16;;;11.47;100.00
21504;BME280;10913;51.992;9.228;2022-10-31T05:13:12;100845.44;;;11.40;100.00
21504;BME280;10913;51.992;9.228;2022-10-31T05:15:37;100848.13;;;11.37;100.00
21504;BME280;10913;51.992;9.228;2022-10-31T05:18:03;100841.06;;;11.33;100.00
21504;BME280;10913;51.992;9.228;2022-10-31T05:20:29;100838.41;;;11.33;100.00
21504;BME280;10913;51.992;9.228;2022-10-31T05:22:56;100837.53;;;11.31;100.00
21504;BME280;10913;51.992;9.228;2022-10-31T05:25:25;100839.28;;;11.31;100.00
21504;BME280;10913;51.992;9.228;2022-10-31T05:27:52;100841.06;;;11.29;100.00
21504;BME280;10913;51.992;9.228;2022-10-31T05:30:23;100831.34;;;11.29;100.00
21504;BME280;10913;51.992;9.228;2022-10-31T05:32:50;100834.00;;;11.29;100.00
21504;BME280;10913;51.992;9.228;2022-10-31T05:35:21;100828.72;;;11.28;100.00
21504;BME280;10913;51.992;9.228;2022-10-31T05:37:47;100839.28;;;11.25;100.00
21504;BME280;10913;51.992;9.228;2022-10-31T05:40:14;100841.06;;;11.21;100.00
21504;BME280;10913;51.992;9.228;2022-10-31T05:42:40;100834.88;;;11.19;100.00
21504;BME280;10913;51.992;9.228;2022-10-31T05:45:10;100843.72;;;11.18;100.00
21504;BME280;10913;51.992;9.228;2022-10-31T05:47:36;100834.91;;;11.16;100.00
21504;BME280;10913;51.992;9.228;2022-10-31T05:50:02;100838.44;;;11.12;100.00
21504;BME280;10913;51.992;9.228;2022-10-31T05:52:28;100830.50;;;11.08;100.00
21504;BME280;10913;51.992;9.228;2022-10-31T05:54:53;100827.84;;;11.06;100.00
21504;BME280;10913;51.992;9.228;2022-10-31T05:57:19;100828.72;;;11.07;100.00
21504;BME280;10913;51.992;9.228;2022-10-31T05:59:44;100824.31;;;11.04;100.00
21504;BME280;10913;51.992;9.228;2022-10-31T06:02:09;100830.47;;;11.01;100.00
21504;BME280;10913;51.992;9.228;2022-10-31T06:04:35;100838.41;;;11.00;100.00
21504;BME280;10913;51.992;9.228;2022-10-31T06:07:00;100831.38;;;10.99;100.00
21504;BME280;10913;51.992;9.228;2022-10-31T06:09:26;100827.84;;;11.00;100.00
21504;BME280;10913;51.992;9.228;2022-10-31T06:11:51;100826.06;;;11.02;100.00
21504;BME280;10913;51.992;9.228;2022-10-31T06:14:16;100827.84;;;11.03;100.00
21504;BME280;10913;51.992;9.228;2022-10-31T06:16:42;100826.97;;;10.98;100.00
21504;BME280;10913;51.992;9.228;2022-10-31T06:19:07;100829.63;;;10.96;100.00
21504;BME280;10913;51.992;9.228;2022-10-31T06:21:32;100826.09;;;10.96;100.00
21504;BME280;10913;51.992;9.228;2022-10-31T06:23:58;100830.50;;;10.92;100.00
21504;BME280;10913;51.992;9.228;2022-10-31T06:26:23;100841.94;;;10.93;100.00
21504;BME280;10913;51.992;9.228;2022-10-31T06:28:48;100831.38;;;10.96;100.00
21504;BME280;10913;51.992;9.228;2022-10-31T06:31:14;100838.41;;;11.00;100.00
21504;BME280;10913;51.992;9.228;2022-10-31T06:33:41;100830.47;;;11.01;100.00
21504;BME280;10913;51.992;9.228;2022-10-31T06:36:07;100835.78;;;11.06;100.00
21504;BME280;10913;51.992;9.228;2022-10-31T06:38:33;100835.78;;;11.09;100.00
21504;BME280;10913;51.992;9.228;2022-10-31T06:41:02;100829.63;;;11.13;100.00
21504;BME280;10913;51.992;9.228;2022-10-31T06:43:28;100834.03;;;11.17;100.00
21504;BME280;10913;51.992;9.228;2022-10-31T06:45:53;100834.00;;;11.20;100.00
21504;BME280;10913;51.992;9.228;2022-10-31T06:48:19;100836.66;;;11.26;100.00
21504;BME280;10913;51.992;9.228;2022-10-31T06:50:44;100842.81;;;11.30;100.00
21504;BME280;10913;51.992;9.228;2022-10-31T06:53:10;100845.47;;;11.34;100.00
21504;BME280;10913;51.992;9.228;2022-10-31T06:55:35;100850.72;;;11.39;100.00
21504;BME280;10913;51.992;9.228;2022-10-31T06:58:01;100842.78;;;11.42;100.00
21504;BME280;10913;51.992;9.228;2022-10-31T07:00:28;100845.44;;;11.40;100.00
21504;BME280;10913;51.992;9.228;2022-10-31T07:05:24;100854.25;;;11.39;100.00
21504;BME280;10913;51.992;9.228;2022-10-31T07:07:54;100861.31;;;11.42;100.00
21504;BME280;10913;51.992;9.228;2022-10-31T07:10:20;100863.06;;;11.48;100.00
21504;BME280;10913;51.992;9.228;2022-10-31T07:12:46;100862.19;;;11.52;100.00
21504;BME280;10913;51.992;9.228;2022-10-31T07:15:11;100871.03;;;11.55;100.00
21504;BME280;10913;51.992;9.228;2022-10-31T07:17:37;100872.75;;;11.61;100.00
21504;BME280;10913;51.992;9.228;2022-10-31T07:20:02;100876.28;;;11.66;100.00
21504;BME280;10913;51.992;9.228;2022-10-31T07:22:35;100882.44;;;11.76;100.00
21504;BME280;10913;51.992;9.228;2022-10-31T07:25:01;100883.31;;;11.88;100.00
21504;BME280;10913;51.992;9.228;2022-10-31T07:27:26;100876.19;;;12.07;100.00
21504;BME280;10913;51.992;9.228;2022-10-31T07:29:52;100882.28;;;12.30;100.00
21504;BME280;10913;51.992;9.228;2022-10-31T07:32:17;100882.19;;;12.50;100.00
21504;BME280;10913;51.992;9.228;2022-10-31T07:34:43;100883.88;;;12.63;100.00
21504;BME280;10913;51.992;9.228;2022-10-31T07:37:08;100883.81;;;12.75;100.00
21504;BME280;10913;51.992;9.228;2022-10-31T07:39:33;100882.00;;;12.81;100.00
21504;BME280;10913;51.992;9.228;2022-10-31T07:41:59;100874.94;;;12.80;100.00
21504;BME280;10913;51.992;9.228;2022-10-31T07:44:24;100874.97;;;12.76;100.00
21504;BME280;10913;51.992;9.228;2022-10-31T07:46:50;100876.69;;;12.84;100.00
21504;BME280;10913;51.992;9.228;2022-10-31T07:49:15;100868.59;;;13.02;100.00
21504;BME280;10913;51.992;9.228;2022-10-31T07:51:40;100868.41;;;13.29;100.00
21504;BME280;10913;51.992;9.228;2022-10-31T07:54:06;100862.03;;;13.52;100.00
21504;BME280;10913;51.992;9.228;2022-10-31T07:56:31;100862.69;;;13.73;99.97
21504;BME280;10913;51.992;9.228;2022-10-31T07:59:02;100867.81;;;13.89;98.91
21504;BME280;10913;51.992;9.228;2022-10-31T08:01:38;100866.78;;;14.00;98.45
21504;BME280;10913;51.992;9.228;2022-10-31T08:04:04;100859.41;;;14.25;98.24
21504;BME280;10913;51.992;9.228;2022-10-31T08:06:29;100852.66;;;14.67;96.79
21504;BME280;10913;51.992;9.228;2022-10-31T08:08:54;100846.03;;;14.96;95.54
21504;BME280;10913;51.992;9.228;2022-10-31T08:11:20;100849.38;;;15.07;94.28
21504;BME280;10913;51.992;9.228;2022-10-31T08:13:46;100844.94;;;15.07;94.10
21504;BME280;10913;51.992;9.228;2022-10-31T08:16:11;100842.00;;;15.24;93.11
21504;BME280;10913;51.992;9.228;2022-10-31T08:18:36;100846.50;;;15.73;92.06
21504;BME280;10913;51.992;9.228;2022-10-31T08:21:02;100845.66;;;16.56;88.97
21504;BME280;10913;51.992;9.228;2022-10-31T08:23:28;100839.28;;;17.35;86.15
21504;BME280;10913;51.992;9.228;2022-10-31T08:25:53;100829.75;;;18.22;82.77
21504;BME280;10913;51.992;9.228;2022-10-31T08:28:18;100827.53;;;19.20;80.04
21504;BME280;10913;51.992;9.228;2022-10-31T08:30:44;100821.03;;;20.04;76.98
21504;BME280;10913;51.992;9.228;2022-10-31T08:33:13;100824.72;;;20.71;74.72
21504;BME280;10913;51.992;9.228;2022-10-31T08:35:39;100823.56;;;20.98;73.94
21504;BME280;10913;51.992;9.228;2022-10-31T08:38:05;100819.59;;;21.09;73.78
21504;BME280;10913;51.992;9.228;2022-10-31T08:40:32;100814.03;;;21.55;72.82
21504;BME280;10913;51.992;9.228;2022-10-31T08:43:08;100814.13;;;22.13;71.08
21504;BME280;10913;51.992;9.228;2022-10-31T08:45:35;100813.50;;;22.46;70.18
21504;BME280;10913;51.992;9.228;2022-10-31T08:48:04;100816.97;;;21.90;70.95
21504;BME280;10913;51.992;9.228;2022-10-31T08:50:31;100821.47;;;21.07;73.25
21504;BME280;10913;51.992;9.228;2022-10-31T08:55:37;100826.16;;;19.86;77.97
21504;BME280;10913;51.992;9.228;2022-10-31T08:58:05;100829.44;;;19.43;78.82
21504;BME280;10913;51.992;9.228;2022-10-31T09:00:32;100824.09;;;18.90;81.17
21504;BME280;10913;51.992;9.228;2022-10-31T09:03:00;100819.50;;;18.38;82.18
21504;BME280;10913;51.992;9.228;2022-10-31T09:05:26;100822.47;;;17.98;84.35
21504;BME280;10913;51.992;9.228;2022-10-31T09:07:55;100820.69;;;17.66;85.67
21504;BME280;10913;51.992;9.228;2022-10-31T09:10:20;100817.94;;;17.35;86.72
21504;BME280;10913;51.992;9.228;2022-10-31T09:12:45;100820.41;;;17.07;87.98
21504;BME280;10913;51.992;9.228;2022-10-31T09:15:11;100823.66;;;16.84;88.98
21504;BME280;10913;51.992;9.228;2022-10-31T09:17:36;100820.19;;;16.79;90.29
21504;BME280;10913;51.992;9.228;2022-10-31T09:20:02;100822.34;;;17.01;89.52
21504;BME280;10913;51.992;9.228;2022-10-31T09:22:27;100821.81;;;17.22;88.45
21504;BME280;10913;51.992;9.228;2022-10-31T09:24:52;100823.69;;;17.52;88.16
21504;BME280;10913;51.992;9.228;2022-10-31T09:27:18;100820.78;;;17.94;87.12
21504;BME280;10913;51.992;9.228;2022-10-31T09:29:43;100816.94;;;18.34;85.38
21504;BME280;10913;51.992;9.228;2022-10-31T09:32:08;100811.41;;;18.69;84.75
21504;BME280;10913;51.992;9.228;2022-10-31T09:34:34;100808.75;;;18.96;83.41
21504;BME280;10913;51.992;9.228;2022-10-31T09:36:59;100800.91;;;18.89;83.29
21504;BME280;10913;51.992;9.228;2022-10-31T09:39:24;100806.78;;;18.74;83.61
21504;BME280;10913;51.992;9.228;2022-10-31T09:42:06;100794.13;;;18.50;85.09
21504;BME280;10913;51.992;9.228;2022-10-31T09:50:22;100805.38;;;18.33;86.84
21504;BME280;10913;51.992;9.228;2022-10-31T09:55:40;100800.31;;;18.52;86.82
21504;BME280;10913;51.992;9.228;2022-10-31T09:58:13;100801.53;;;18.71;85.65
21504;BME280;10913;51.992;9.228;2022-10-31T10:00:40;100799.34;;;18.82;84.37
21504;BME280;10913;51.992;9.228;2022-10-31T10:05:45;100800.25;;;18.83;85.05
21504;BME280;10913;51.992;9.228;2022-10-31T10:08:34;100791.56;;;18.76;85.04
21504;BME280;10913;51.992;9.228;2022-10-31T10:19:18;100783.38;;;18.79;87.38
21504;BME280;10913;51.992;9.228;2022-10-31T10:24:33;100784.22;;;18.81;88.78
21504;BME280;10913;51.992;9.228;2022-10-31T10:32:28;100779.19;;;18.99;87.74
21504;BME280;10913;51.992;9.228;2022-10-31T10:35:00;100768.38;;;19.02;87.84
21504;BME280;10913;51.992;9.228;2022-10-31T10:37:38;100768.16;;;19.08;87.74
21504;BME280;10913;51.992;9.228;2022-10-31T10:40:11;100771.47;;;19.16;87.85
21504;BME280;10913;51.992;9.228;2022-10-31T10:42:38;100772.13;;;19.22;87.45
21504;BME280;10913;51.992;9.228;2022-10-31T10:45:22;100770.59;;;19.40;87.71
21504;BME280;10913;51.992;9.228;2022-10-31T10:50:42;100765.75;;;19.76;87.93
21504;BME280;10913;51.992;9.228;2022-10-31T10:56:36;100748.22;;;20.14;86.28
21504;BME280;10913;51.992;9.228;2022-10-31T10:59:03;100747.59;;;20.29;85.66
21504;BME280;10913;51.992;9.228;2022-10-31T11:01:29;100743.63;;;20.40;85.14
21504;BME280;10913;51.992;9.228;2022-10-31T11:03:55;100735.28;;;20.47;85.03
21504;BME280;10913;51.992;9.228;2022-10-31T11:06:22;100738.34;;;20.60;84.18
21504;BME280;10913;51.992;9.228;2022-10-31T11:08:51;100731.97;;;20.62;84.02
21504;BME280;10913;51.992;9.228;2022-10-31T11:13:45;100721.03;;;20.67;82.52
21504;BME280;10913;51.992;9.228;2022-10-31T11:16:15;100726.41;;;20.67;82.19
21504;BME280;10913;51.992;9.228;2022-10-31T11:18:51;100721.28;;;20.61;82.35
21504;BME280;10913;51.992;9.228;2022-10-31T11:21:22;100712.81;;;20.50;83.41
21504;BME280;10913;51.992;9.228;2022-10-31T11:23:48;100711.66;;;20.34;83.63
21504;BME280;10913;51.992;9.228;2022-10-31T11:26:20;100708.78;;;20.16;84.22
21504;BME280;10913;51.992;9.228;2022-10-31T11:28:56;100702.13;;;20.03;84.29
21504;BME280;10913;51.992;9.228;2022-10-31T11:31:23;100700.50;;;19.99;84.93
21504;BME280;10913;51.992;9.228;2022-10-31T11:33:58;100699.50;;;20.02;85.48
21504;BME280;10913;51.992;9.228;2022-10-31T11:36:27;100699.38;;;20.05;84.89
21504;BME280;10913;51.992;9.228;2022-10-31T11:38:54;100683.75;;;20.16;85.49
21504;BME280;10913;51.992;9.228;2022-10-31T11:41:29;100683.00;;;20.34;85.25
21504;BME280;10913;51.992;9.228;2022-10-31T11:44:00;100678.47;;;20.36;84.99
21504;BME280;10913;51.992;9.228;2022-10-31T11:46:35;100681.66;;;20.46;84.59
21504;BME280;10913;51.992;9.228;2022-10-31T11:49:03;100671.69;;;20.49;84.51
21504;BME280;10913;51.992;9.228;2022-10-31T11:51:33;100671.38;;;20.57;84.46
21504;BME280;10913;51.992;9.228;2022-10-31T11:54:01;100669.47;;;20.59;83.60
21504;BME280;10913;51.992;9.228;2022-10-31T11:56:37;100672.78;;;20.66;83.85
21504;BME280;10913;51.992;9.228;2022-10-31T11:59:05;100662.78;;;20.69;83.82
21504;BME280;10913;51.992;9.228;2022-10-31T12:01:32;100662.41;;;20.78;83.39
21504;BME280;10913;51.992;9.228;2022-10-31T12:06:32;100660.56;;;20.79;82.51
21504;BME280;10913;51.992;9.228;2022-10-31T12:08:59;100648.56;;;20.87;82.17
21504;BME280;10913;51.992;9.228;2022-10-31T12:11:46;100651.78;;;20.95;81.89
21504;BME280;10913;51.992;9.228;2022-10-31T12:14:28;100640.81;;;21.00;81.46
21504;BME280;10913;51.992;9.228;2022-10-31T12:22:21;100634.94;;;20.92;82.02
21504;BME280;10913;51.992;9.228;2022-10-31T12:30:21;100611.09;;;20.84;82.48
21504;BME280;10913;51.992;9.228;2022-10-31T12:32:53;100607.88;;;20.76;82.83
21504;BME280;10913;51.992;9.228;2022-10-31T12:38:19;100600.03;;;20.72;83.65
21504;BME280;10913;51.992;9.228;2022-10-31T12:41:04;100592.78;;;20.74;83.47
21504;BME280;10913;51.992;9.228;2022-10-31T12:43:57;100594.09;;;20.84;83.88
21504;BME280;10913;51.992;9.228;2022-10-31T12:49:31;100578.47;;;20.93;82.53
21504;BME280;10913;51.992;9.228;2022-10-31T12:54:41;100562.22;;;20.96;82.42
21504;BME280;10913;51.992;9.228;2022-10-31T13:00:04;100559.28;;;21.01;82.67
21504;BME280;10913;51.992;9.228;2022-10-31T13:02:41;100551.16;;;21.03;82.42
21504;BME280;10913;51.992;9.228;2022-10-31T13:05:19;100544.19;;;20.98;81.55
21504;BME280;10913;51.992;9.228;2022-10-31T13:13:23;100534.00;;;20.86;81.89
21504;BME280;10913;51.992;9.228;2022-10-31T13:15:57;100526.06;;;20.83;82.01
21504;BME280;10913;51.992;9.228;2022-10-31T13:18:31;100524.25;;;20.84;81.78
21504;BME280;10913;51.992;9.228;2022-10-31T13:21:02;100519.03;;;20.81;82.30
21504;BME280;10913;51.992;9.228;2022-10-31T13:23:31;100519.03;;;20.81;82.57
21504;BME280;10913;51.992;9.228;2022-10-31T13:26:01;100513.66;;;20.81;83.01
21504;BME280;10913;51.992;9.228;2022-10-31T13:28:50;100512.78;;;20.80;82.82
21504;BME280;10913;51.992;9.228;2022-10-31T13:31:20;100512.00;;;20.78;82.19
21504;BME280;10913;51.992;9.228;2022-10-31T13:33:53;100502.22;;;20.77;82.21
21504;BME280;10913;51.992;9.228;2022-10-31T13:36:36;100495.91;;;20.78;81.60
21504;BME280;10913;51.992;9.228;2022-10-31T13:39:17;100501.47;;;20.74;82.25
21504;BME280;10913;51.992;9.228;2022-10-31T13:41:49;100498.09;;;20.69;83.09
21504;BME280;10913;51.992;9.228;2022-10-31T13:46:45;100491.50;;;20.57;82.44
21504;BME280;10913;51.992;9.228;2022-10-31T13:54:40;100479.34;;;20.48;81.29
21504;BME280;10913;51.992;9.228;2022-10-31T13:57:37;100483.16;;;20.43;81.89
21504;BME280;10913;51.992;9.228;2022-10-31T14:02:36;100472.66;;;20.38;82.88
21504;BME280;10913;51.992;9.228;2022-10-31T14:05:25;100473.75;;;20.33;83.30
21504;BME280;10913;51.992;9.228;2022-10-31T14:07:52;100465.84;;;20.29;83.84
21504;BME280;10913;51.992;9.228;2022-10-31T14:10:28;100469.53;;;20.27;84.36
21504;BME280;10913;51.992;9.228;2022-10-31T14:13:17;100479.50;;;20.23;85.05
21504;BME280;10913;51.992;9.228;2022-10-31T14:15:54;100477.88;;;20.19;85.89
21504;BME280;10913;51.992;9.228;2022-10-31T14:18:30;100476.38;;;20.14;85.76
21504;BME280;10913;51.992;9.228;2022-10-31T14:20:56;100474.69;;;20.11;86.46
21504;BME280;10913;51.992;9.228;2022-10-31T14:25:53;100466.28;;;19.99;87.09
21504;BME280;10913;51.992;9.228;2022-10-31T14:28:22;100470.91;;;19.95;87.76
21504;BME280;10913;51.992;9.228;2022-10-31T14:30:57;100475.47;;;19.93;88.25
21504;BME280;10913;51.992;9.228;2022-10-31T14:33:26;100471.16;;;19.89;87.58
21504;BME280;10913;51.992;9.228;2022-10-31T14:36:11;100463.25;;;19.86;87.28
21504;BME280;10913;51.992;9.228;2022-10-31T14:39:18;100460.69;;;19.83;87.57
21504;BME280;10913;51.992;9.228;2022-10-31T14:47:10;100436.16;;;19.72;88.14
21504;BME280;10913;51.992;9.228;2022-10-31T14:50:04;100436.28;;;19.69;87.51
21504;BME280;10913;51.992;9.228;2022-10-31T14:52:36;100432.91;;;19.64;87.91
21504;BME280;10913;51.992;9.228;2022-10-31T14:55:05;100429.63;;;19.57;88.11